Time;durP1;ratioP1;P1;durP2;ratioP2;P2;SDS_P1;SDS_P2;PMS_P1;PMS_P2;Temp;Humidity;BMP_temperature;BMP_pressure;BME280_temperature;BME280_humidity;BME280_pressure;Samples;Min_cycle;Max_cycle;Signal;HPM_P1;HPM_P2
2024/02/09 00:00:32;;;;;;;;;;;;;;;11.68;74.35;99913.69;4942204;29;19918;-82
2024/02/09 00:03:26;;;;;;;;;;;;;;;11.56;74.41;99898.16;4938829;29;19930;-81
2024/02/09 00:06:18;;;;;;;;;;;;;;;11.44;75.33;99894.63;4936830;29;19926;-81
2024/02/09 00:09:12;;;;;;;;;;;;;;;11.18;77.23;99888.72;4937180;29;20513;-81
2024/02/09 00:12:05;;;;;;;;;;;;;;;11.21;76.78;99890.78;4941348;28;19926;-86
2024/02/09 00:14:57;;;;;;;;;;;;;;;11.10;77.34;99883.06;4923332;29;19923;-82
2024/02/09 00:17:49;;;;;;;;;;;;;;;11.21;77.48;99869.00;4942230;28;19919;-82
2024/02/09 00:20:41;;;;;;;;;;;;;;;11.21;77.58;99856.22;4952566;28;19919;-82
2024/02/09 00:23:33;;;;;;;;;;;;;;;11.33;77.16;99847.22;4952510;28;19919;-82
2024/02/09 00:26:26;;;;;;;;;;;;;;;11.31;77.72;99833.97;4940372;28;20392;-81
2024/02/09 00:29:18;;;;;;;;;;;;;;;11.35;77.34;99834.06;4936082;29;19919;-82
2024/02/09 00:32:12;;;;;;;;;;;;;;;11.45;77.00;99834.41;4933485;29;21684;-82
2024/02/09 00:35:06;;;;;;;;;;;;;;;11.51;76.66;99829.53;4916865;29;20382;-82
2024/02/09 00:37:58;;;;;;;;;;;;;;;11.51;76.24;99822.16;4919517;29;19919;-81
2024/02/09 00:40:45;;;;;;;;;;;;;;;11.49;76.46;99831.78;4917856;29;19924;-82
2024/02/09 00:43:37;;;;;;;;;;;;;;;11.52;75.97;99831.91;4928026;29;20384;-84
2024/02/09 00:46:29;;;;;;;;;;;;;;;11.61;76.02;99831.78;4937488;29;19923;-82
2024/02/09 00:49:21;;;;;;;;;;;;;;;11.52;75.78;99828.41;4935562;29;19919;-81
2024/02/09 00:52:13;;;;;;;;;;;;;;;11.35;77.11;99825.91;4940914;29;19918;-82
2024/02/09 00:55:05;;;;;;;;;;;;;;;11.47;76.65;99818.53;4937330;29;20116;-82
2024/02/09 00:57:57;;;;;;;;;;;;;;;11.62;76.23;99822.47;4935474;29;19919;-82
2024/02/09 01:00:46;;;;;;;;;;;;;;;11.66;75.66;99828.81;4938663;29;19919;-82
2024/02/09 01:03:38;;;;;;;;;;;;;;;11.67;75.58;99808.63;4936694;29;19919;-82
2024/02/09 01:06:31;;;;;;;;;;;;;;;11.53;76.08;99798.09;4933992;29;19923;-82
2024/02/09 01:09:26;;;;;;;;;;;;;;;11.50;76.24;99792.53;4936119;29;19920;-82
2024/02/09 02:46:16;;;;;;;;;;;;;;;11.37;75.64;99701.16;4942955;29;19922;-81
2024/02/09 03:04:49;;;;;;;;;;;;;;;11.62;74.28;99694.50;4936272;29;19919;-82
2024/02/09 03:07:41;;;;;;;;;;;;;;;11.61;73.86;99689.38;4940224;29;19919;-81
2024/02/09 03:10:33;;;;;;;;;;;;;;;11.57;74.31;99686.56;4942319;29;19919;-82
2024/02/09 03:13:25;;;;;;;;;;;;;;;11.47;74.54;99689.78;4937333;29;19922;-82
2024/02/09 03:16:17;;;;;;;;;;;;;;;11.05;75.97;99676.53;4942515;29;20300;-82
2024/02/09 03:19:09;;;;;;;;;;;;;;;11.11;76.68;99680.59;4937888;29;19918;-82
2024/02/09 03:22:01;;;;;;;;;;;;;;;11.20;76.31;99682.38;4923007;29;19923;-82
2024/02/09 03:24:52;;;;;;;;;;;;;;;11.11;76.57;99677.88;4938972;29;19919;-81
2024/02/09 03:27:44;;;;;;;;;;;;;;;11.20;76.18;99669.56;4937127;29;19923;-82
2024/02/09 03:30:36;;;;;;;;;;;;;;;11.12;76.10;99665.06;4941988;29;19915;-82
2024/02/09 03:33:28;;;;;;;;;;;;;;;11.16;76.26;99657.81;4936702;29;20401;-83
2024/02/09 03:36:20;;;;;;;;;;;;;;;10.82;77.34;99659.09;4944607;29;19918;-81
2024/02/09 03:39:12;;;;;;;;;;;;;;;10.94;77.63;99661.03;4945492;28;19919;-82
2024/02/09 03:42:04;;;;;;;;;;;;;;;11.14;76.59;99654.63;4923927;29;20333;-82
2024/02/09 03:44:59;;;;;;;;;;;;;;;11.04;75.96;99658.63;4944553;28;20319;-82
2024/02/09 03:47:50;;;;;;;;;;;;;;;10.89;77.52;99653.09;4938409;29;20400;-82
2024/02/09 03:50:42;;;;;;;;;;;;;;;10.83;77.74;99654.47;4942492;29;19918;-82
2024/02/09 03:53:34;;;;;;;;;;;;;;;10.94;77.06;99655.56;4942293;29;19923;-82
2024/02/09 03:56:26;;;;;;;;;;;;;;;11.06;76.50;99659.06;4941418;29;19922;-83
2024/02/09 03:59:18;;;;;;;;;;;;;;;10.89;76.75;99656.59;4935914;29;19919;-82
2024/02/09 04:02:10;;;;;;;;;;;;;;;10.92;77.29;99664.06;4941844;29;20377;-82
2024/02/09 04:05:02;;;;;;;;;;;;;;;10.95;77.13;99666.13;4937218;29;20296;-82
2024/02/09 04:07:51;;;;;;;;;;;;;;;11.01;77.18;99651.16;4934862;29;19919;-82
2024/02/09 04:10:43;;;;;;;;;;;;;;;11.13;77.01;99653.03;4938798;29;20292;-82
2024/02/09 04:13:35;;;;;;;;;;;;;;;10.95;77.07;99657.16;4942006;29;19926;-80
2024/02/09 04:16:32;;;;;;;;;;;;;;;10.62;79.34;99654.59;4922080;29;19919;-83
2024/02/09 04:19:24;;;;;;;;;;;;;;;10.47;80.36;99642.50;4917081;29;19919;-82
2024/02/09 04:22:16;;;;;;;;;;;;;;;10.50;80.79;99630.16;4928673;29;19926;-82
2024/02/09 04:25:08;;;;;;;;;;;;;;;10.42;82.14;99628.34;4943049;29;20392;-81
2024/02/09 04:28:00;;;;;;;;;;;;;;;10.34;81.86;99624.63;4947432;28;20668;-82
2024/02/09 04:30:52;;;;;;;;;;;;;;;10.43;82.38;99629.91;4946862;28;19918;-82
2024/02/09 04:33:44;;;;;;;;;;;;;;;10.36;81.46;99635.16;4942544;29;19923;-83
2024/02/09 04:36:39;;;;;;;;;;;;;;;10.30;81.97;99629.16;4954808;28;20337;-83
2024/02/09 04:39:31;;;;;;;;;;;;;;;10.31;82.10;99638.09;4955333;28;19918;-82
2024/02/09 04:42:20;;;;;;;;;;;;;;;10.29;82.18;99624.84;4946836;28;19918;-83
2024/02/09 04:45:12;;;;;;;;;;;;;;;10.32;82.63;99623.34;4941631;29;20537;-82
2024/02/09 04:48:04;;;;;;;;;;;;;;;10.27;82.56;99622.47;4940025;29;20461;-82
2024/02/09 04:50:56;;;;;;;;;;;;;;;10.48;82.15;99606.03;4941152;29;19923;-82
2024/02/09 04:53:48;;;;;;;;;;;;;;;10.35;82.41;99611.81;4941173;29;19926;-82
2024/02/09 04:56:41;;;;;;;;;;;;;;;10.27;82.40;99608.88;4937428;29;19918;-83
2024/02/09 04:59:30;;;;;;;;;;;;;;;10.50;81.91;99609.22;4935701;29;19922;-83
2024/02/09 05:02:22;;;;;;;;;;;;;;;10.67;81.35;99605.44;4939048;29;20305;-82
2024/02/09 05:05:14;;;;;;;;;;;;;;;10.77;80.16;99596.78;4941211;29;19919;-82
2024/02/09 05:08:06;;;;;;;;;;;;;;;10.55;81.01;99605.47;4940975;29;19926;-82
2024/02/09 05:10:56;;;;;;;;;;;;;;;10.56;81.63;99607.84;4952641;28;19918;-82
2024/02/09 05:13:48;;;;;;;;;;;;;;;10.27;82.60;99598.00;4947083;28;19922;-82
2024/02/09 05:16:43;;;;;;;;;;;;;;;10.25;83.00;99591.34;4945931;28;19919;-83
2024/02/09 05:19:35;;;;;;;;;;;;;;;10.32;83.93;99590.75;4939165;29;19919;-82
2024/02/09 05:22:27;;;;;;;;;;;;;;;10.50;82.47;99592.91;4947764;28;19923;-82
2024/02/09 05:25:19;;;;;;;;;;;;;;;10.67;81.13;99578.25;4944551;29;19919;-82
2024/02/09 05:28:11;;;;;;;;;;;;;;;10.80;80.06;99570.84;4931524;29;19919;-82
2024/02/09 05:31:03;;;;;;;;;;;;;;;10.90;79.35;99573.09;4926760;29;19919;-84
2024/02/09 05:33:55;;;;;;;;;;;;;;;10.97;78.94;99573.31;4942104;29;20304;-85
2024/02/09 05:36:47;;;;;;;;;;;;;;;10.90;78.81;99563.00;4927139;29;19923;-83
2024/02/09 05:39:42;;;;;;;;;;;;;;;10.66;80.67;99574.75;4936933;29;19923;-83
2024/02/09 05:42:34;;;;;;;;;;;;;;;10.74;80.74;99570.31;4934802;29;19919;-83
2024/02/09 05:45:26;;;;;;;;;;;;;;;10.44;81.31;99577.97;4931706;29;19918;-83
2024/02/09 05:48:17;;;;;;;;;;;;;;;10.54;81.53;99579.41;4941848;29;19922;-82
2024/02/09 05:51:16;;;;;;;;;;;;;;;10.66;81.04;99591.06;4943281;28;20312;-83
2024/02/09 05:54:08;;;;;;;;;;;;;;;10.64;80.87;99587.09;4931776;29;19923;-84
2024/02/09 05:57:00;;;;;;;;;;;;;;;10.66;80.47;99590.28;4934006;28;19922;-85
2024/02/09 05:59:52;;;;;;;;;;;;;;;10.72;80.04;99572.56;4957333;28;19918;-84
2024/02/09 06:02:44;;;;;;;;;;;;;;;10.85;79.72;99578.78;4958554;28;19918;-83
2024/02/09 06:05:36;;;;;;;;;;;;;;;10.95;79.83;99581.81;4934354;29;19922;-83
2024/02/09 06:08:30;;;;;;;;;;;;;;;11.03;78.88;99575.41;4940148;28;19923;-83
2024/02/09 06:59:17;;;;;;;;;;;;;;;10.54;82.08;99587.56;4929011;29;19919;-81
2024/02/09 07:02:51;;;;;;;;;;;;;;;10.62;81.75;99583.91;4929298;29;19919;-81
2024/02/09 07:06:34;;;;;;;;;;;;;;;10.63;81.53;99593.66;4912057;29;19919;-84
2024/02/09 07:13:57;;;;;;;;;;;;;;;10.95;80.86;99586.44;4953285;28;19919;-83
2024/02/09 07:20:59;;;;;;;;;;;;;;;10.79;81.05;99601.91;4941772;29;19923;-83
2024/02/09 07:23:51;;;;;;;;;;;;;;;10.65;81.38;99599.56;4935749;29;19919;-82
2024/02/09 07:30:16;;;;;;;;;;;;;;;10.71;83.01;99599.00;5010906;23;19938;-83
2024/02/09 07:33:09;;;;;;;;;;;;;;;10.78;82.71;99603.03;4973150;28;19918;-83
2024/02/09 07:36:01;;;;;;;;;;;;;;;10.78;81.99;99606.53;4980589;28;19922;-82
2024/02/09 07:42:52;;;;;;;;;;;;;;;10.83;82.43;99600.06;4996339;28;19922;-79
2024/02/09 07:45:44;;;;;;;;;;;;;;;10.86;82.44;99605.63;4995205;28;19918;-82
2024/02/09 07:48:36;;;;;;;;;;;;;;;10.93;82.36;99611.25;4984043;28;20375;-82
2024/02/09 07:51:27;;;;;;;;;;;;;;;10.90;82.24;99598.38;4995479;28;19918;-81
2024/02/09 07:54:19;;;;;;;;;;;;;;;10.91;82.57;99602.69;4983418;28;20386;-82
2024/02/09 07:57:12;;;;;;;;;;;;;;;10.97;82.96;99606.72;4995026;28;20302;-82
2024/02/09 08:00:08;;;;;;;;;;;;;;;10.97;82.69;99622.28;4988250;28;19918;-82
2024/02/09 08:03:00;;;;;;;;;;;;;;;10.91;83.57;99620.91;4986467;28;19917;-82
2024/02/09 08:05:52;;;;;;;;;;;;;;;10.97;83.68;99614.09;4994515;28;19917;-83
2024/02/09 08:08:44;;;;;;;;;;;;;;;10.96;83.14;99613.31;4985759;28;19918;-83
2024/02/09 08:11:38;;;;;;;;;;;;;;;10.93;83.15;99615.91;4986435;28;19922;-82
2024/02/09 08:14:28;;;;;;;;;;;;;;;10.95;83.27;99602.78;4978553;28;19926;-81
2024/02/09 08:17:18;;;;;;;;;;;;;;;10.95;83.77;99602.78;4988186;28;20307;-81
2024/02/09 08:20:09;;;;;;;;;;;;;;;10.97;83.47;99606.72;4982865;28;19922;-82
2024/02/09 08:23:01;;;;;;;;;;;;;;;10.99;83.50;99612.59;4982383;28;19934;-80
2024/02/09 08:25:53;;;;;;;;;;;;;;;10.94;84.00;99603.91;4979814;28;19918;-80
2024/02/09 08:28:48;;;;;;;;;;;;;;;10.89;84.33;99596.78;4983044;28;20375;-80
2024/02/09 08:31:40;;;;;;;;;;;;;;;10.90;84.58;99603.00;4983906;28;19918;-81
2024/02/09 08:34:32;;;;;;;;;;;;;;;10.87;85.25;99607.19;4991246;28;19929;-80
2024/02/09 08:37:24;;;;;;;;;;;;;;;10.90;85.09;99606.53;4995963;28;20314;-80
2024/02/09 08:40:16;;;;;;;;;;;;;;;10.93;85.14;99605.81;4988252;28;19921;-81
2024/02/09 08:43:08;;;;;;;;;;;;;;;10.93;84.82;99605.81;4981770;28;19917;-80
2024/02/09 08:46:00;;;;;;;;;;;;;;;10.97;85.35;99600.50;4994147;28;19918;-80
2024/02/09 08:48:50;;;;;;;;;;;;;;;10.99;85.38;99604.44;4978866;28;20395;-80
2024/02/09 08:51:42;;;;;;;;;;;;;;;11.04;84.81;99614.28;4996628;28;20391;-80
2024/02/09 08:54:31;;;;;;;;;;;;;;;11.08;84.86;99617.91;4994264;28;19921;-81
2024/02/09 08:57:23;;;;;;;;;;;;;;;11.07;85.13;99610.91;4986982;28;19921;-81
2024/02/09 09:00:15;;;;;;;;;;;;;;;11.06;85.95;99615.56;4977621;28;19918;-80
2024/02/09 09:03:07;;;;;;;;;;;;;;;11.42;84.72;99622.00;4987665;28;19917;-79
2024/02/09 09:05:58;;;;;;;;;;;;;;;11.76;83.72;99607.75;4991033;28;19926;-80
2024/02/09 09:08:48;;;;;;;;;;;;;;;11.58;82.96;99630.97;4994594;28;19918;-80
2024/02/09 09:11:40;;;;;;;;;;;;;;;11.68;83.30;99619.59;4978944;28;19918;-79
2024/02/09 09:14:32;;;;;;;;;;;;;;;11.77;82.35;99622.97;4997893;28;20359;-79
2024/02/09 09:17:23;;;;;;;;;;;;;;;11.88;82.85;99618.59;4989938;28;19922;-79
2024/02/09 09:20:15;;;;;;;;;;;;;;;11.97;82.88;99624.66;4993569;28;20299;-80
2024/02/09 09:23:05;;;;;;;;;;;;;;;12.28;83.29;99618.41;4989042;28;19926;-80
2024/02/09 09:25:57;;;;;;;;;;;;;;;12.15;80.63;99606.00;4986051;28;19922;-79
2024/02/09 09:28:49;;;;;;;;;;;;;;;11.84;82.20;99606.78;4991547;28;20306;-81
2024/02/09 09:31:41;;;;;;;;;;;;;;;11.76;82.77;99604.25;4996450;28;19918;-81
2024/02/09 09:34:33;;;;;;;;;;;;;;;11.65;83.81;99597.69;4987099;28;19926;-80
2024/02/09 09:37:25;;;;;;;;;;;;;;;11.57;84.35;99585.84;4969347;28;19918;-80
2024/02/09 09:40:15;;;;;;;;;;;;;;;11.55;85.09;99591.63;4986933;28;19918;-80
2024/02/09 09:43:07;;;;;;;;;;;;;;;11.56;84.70;99600.59;4975018;28;20300;-80
2024/02/09 09:45:59;;;;;;;;;;;;;;;11.49;85.86;99590.28;4996168;28;20571;-81
2024/02/09 09:48:52;;;;;;;;;;;;;;;11.47;85.82;99592.59;4993978;28;19918;-81
2024/02/09 09:51:44;;;;;;;;;;;;;;;11.50;85.94;99600.03;4992660;28;19918;-80
2024/02/09 09:54:37;;;;;;;;;;;;;;;11.60;85.63;99596.00;5000065;28;19921;-81
2024/02/09 09:57:30;;;;;;;;;;;;;;;11.55;86.05;99579.94;4989234;28;19921;-81
2024/02/09 10:00:22;;;;;;;;;;;;;;;11.65;85.75;99584.06;4986099;28;19922;-80
2024/02/09 10:03:14;;;;;;;;;;;;;;;11.67;85.51;99584.53;4986482;28;19929;-81
2024/02/09 10:06:06;;;;;;;;;;;;;;;11.67;86.03;99585.31;4996247;28;19917;-80
2024/02/09 10:08:53;;;;;;;;;;;;;;;11.73;85.87;99577.72;4997623;28;19921;-80
2024/02/09 10:11:45;;;;;;;;;;;;;;;11.70;86.31;99571.00;4997756;28;19925;-80
2024/02/09 10:14:35;;;;;;;;;;;;;;;11.68;86.48;99569.78;4998382;28;20395;-80
2024/02/09 10:17:27;;;;;;;;;;;;;;;11.70;86.67;99568.28;4996081;28;19918;-80
2024/02/09 10:20:19;;;;;;;;;;;;;;;11.76;86.51;99577.00;4997638;28;19918;-80
2024/02/09 10:23:08;;;;;;;;;;;;;;;11.72;86.52;99574.16;4991484;28;19918;-80
2024/02/09 10:26:03;;;;;;;;;;;;;;;11.78;86.80;99575.53;4990750;28;19926;-80
2024/02/09 10:28:55;;;;;;;;;;;;;;;11.93;85.79;99572.00;4996047;28;19922;-79
2024/02/09 10:31:47;;;;;;;;;;;;;;;11.97;85.89;99567.44;4999668;28;19921;-79
2024/02/09 10:34:37;;;;;;;;;;;;;;;11.97;85.46;99567.44;4997545;28;19922;-81
2024/02/09 10:37:29;;;;;;;;;;;;;;;11.97;85.61;99558.47;4995148;28;19917;-80
2024/02/09 10:40:24;;;;;;;;;;;;;;;12.04;85.62;99557.88;4993130;28;19921;-80
2024/02/09 10:43:23;;;;;;;;;;;;;;;12.03;85.84;99550.81;4996704;28;19922;-81
2024/02/09 10:46:16;;;;;;;;;;;;;;;12.02;86.38;99546.50;4999491;28;20459;-81
2024/02/09 10:49:06;;;;;;;;;;;;;;;12.10;86.01;99545.53;4988774;28;19921;-81
2024/02/09 10:51:58;;;;;;;;;;;;;;;12.08;86.22;99539.66;4995560;28;20406;-81
2024/02/09 10:54:56;;;;;;;;;;;;;;;12.09;86.56;99531.09;4997928;28;20587;-81
2024/02/09 10:57:50;;;;;;;;;;;;;;;12.12;86.91;99524.97;4995930;28;19918;-81
2024/02/09 11:00:44;;;;;;;;;;;;;;;12.19;86.39;99524.34;4987622;28;19921;-80
2024/02/09 11:03:39;;;;;;;;;;;;;;;12.22;85.99;99523.63;4998079;28;19922;-81
2024/02/09 11:06:26;;;;;;;;;;;;;;;12.26;85.60;99524.50;4994980;28;20323;-80
2024/02/09 11:09:18;;;;;;;;;;;;;;;12.29;85.65;99516.38;4989186;28;19917;-81
2024/02/09 11:12:10;;;;;;;;;;;;;;;12.34;85.16;99513.38;4996732;28;20379;-80
2024/02/09 11:14:59;;;;;;;;;;;;;;;12.40;85.06;99511.16;4994784;28;19922;-81
2024/02/09 11:17:52;;;;;;;;;;;;;;;12.41;85.11;99505.38;4991201;28;19922;-81
2024/02/09 11:20:44;;;;;;;;;;;;;;;12.45;85.02;99505.44;4985606;28;19918;-80
2024/02/09 11:23:37;;;;;;;;;;;;;;;12.53;84.42;99490.81;4993770;28;19921;-81
2024/02/09 11:26:38;;;;;;;;;;;;;;;12.53;84.21;99479.91;4996797;28;19918;-80
2024/02/09 11:29:29;;;;;;;;;;;;;;;12.57;84.62;99474.53;4994583;28;19918;-81
2024/02/09 11:32:20;;;;;;;;;;;;;;;12.59;84.37;99456.66;4991896;28;19922;-81
2024/02/09 11:35:12;;;;;;;;;;;;;;;12.61;84.53;99468.00;4996665;28;19925;-81
2024/02/09 11:38:04;;;;;;;;;;;;;;;12.65;84.77;99459.88;4993895;28;19917;-81
2024/02/09 11:40:53;;;;;;;;;;;;;;;12.62;84.19;99446.97;4997332;28;19917;-81
2024/02/09 11:43:45;;;;;;;;;;;;;;;12.70;84.83;99435.03;4995225;28;19922;-81
2024/02/09 11:46:37;;;;;;;;;;;;;;;12.76;84.29;99431.66;4998148;28;19921;-81
2024/02/09 11:49:29;;;;;;;;;;;;;;;12.74;83.49;99447.63;4989711;28;19917;-80
2024/02/09 11:52:21;;;;;;;;;;;;;;;12.81;82.71;99446.94;4994883;28;19917;-80
2024/02/09 11:55:08;;;;;;;;;;;;;;;12.86;82.56;99427.56;4988286;28;19921;-81
2024/02/09 11:58:00;;;;;;;;;;;;;;;12.89;82.12;99436.97;4982750;28;20299;-81
2024/02/09 12:00:52;;;;;;;;;;;;;;;12.93;82.84;99416.00;4986274;28;19937;-80
2024/02/09 12:03:40;;;;;;;;;;;;;;;12.90;82.45;99424.91;4987976;28;19922;-80
2024/02/09 12:06:32;;;;;;;;;;;;;;;12.92;82.52;99428.06;4995133;28;19917;-81
2024/02/09 12:09:24;;;;;;;;;;;;;;;12.94;82.39;99418.38;4993508;28;19925;-81
2024/02/09 12:12:11;;;;;;;;;;;;;;;12.97;82.52;99422.28;4997162;28;20315;-81
2024/02/09 12:14:58;;;;;;;;;;;;;;;12.93;82.46;99407.81;4995049;28;19926;-81
2024/02/09 12:17:53;;;;;;;;;;;;;;;12.94;82.59;99398.47;4992029;28;19918;-81
2024/02/09 12:20:45;;;;;;;;;;;;;;;12.94;82.77;99388.34;4999262;28;19917;-81
2024/02/09 12:23:37;;;;;;;;;;;;;;;12.95;83.00;99370.03;4994324;28;19918;-81
2024/02/09 12:26:26;;;;;;;;;;;;;;;12.97;82.93;99379.44;4992268;28;19921;-81
2024/02/09 12:29:18;;;;;;;;;;;;;;;12.93;82.63;99377.78;4988051;28;20423;-80
2024/02/09 12:32:08;;;;;;;;;;;;;;;12.95;82.71;99370.03;4985772;28;19917;-81
2024/02/09 12:34:55;;;;;;;;;;;;;;;12.98;82.71;99364.63;4997146;28;19925;-80
2024/02/09 12:37:51;;;;;;;;;;;;;;;12.99;82.46;99360.75;4994731;28;20295;-81
2024/02/09 12:40:43;;;;;;;;;;;;;;;12.96;81.98;99349.75;4998477;28;19921;-81
2024/02/09 12:43:35;;;;;;;;;;;;;;;12.97;81.78;99343.16;4995963;28;19918;-81
2024/02/09 12:46:28;;;;;;;;;;;;;;;12.97;81.42;99343.16;4987950;28;19922;-81
2024/02/09 12:49:20;;;;;;;;;;;;;;;12.98;81.58;99336.56;4987695;28;19917;-81
2024/02/09 12:52:14;;;;;;;;;;;;;;;12.95;82.21;99334.56;4988305;28;19918;-82
2024/02/09 12:55:06;;;;;;;;;;;;;;;12.95;82.47;99331.84;4992418;28;19922;-82
2024/02/09 12:57:58;;;;;;;;;;;;;;;12.92;82.15;99327.09;4995450;28;19918;-81
2024/02/09 13:00:56;;;;;;;;;;;;;;;12.88;82.10;99323.53;4993933;28;19917;-81
2024/02/09 13:03:48;;;;;;;;;;;;;;;12.90;82.44;99326.69;4997918;28;19918;-79
2024/02/09 13:06:40;;;;;;;;;;;;;;;12.90;81.84;99321.22;4981110;28;20008;-81
2024/02/09 13:09:32;;;;;;;;;;;;;;;12.91;81.71;99317.34;4988818;28;19922;-79
2024/02/09 13:12:24;;;;;;;;;;;;;;;12.89;82.26;99306.00;4985135;28;19921;-81
2024/02/09 13:15:11;;;;;;;;;;;;;;;12.85;82.14;99305.94;4988127;28;19922;-82
2024/02/09 13:18:03;;;;;;;;;;;;;;;12.83;82.34;99300.88;4984833;28;19925;-82
2024/02/09 13:20:55;;;;;;;;;;;;;;;12.84;82.11;99307.91;4998788;28;19922;-82
2024/02/09 13:23:47;;;;;;;;;;;;;;;12.90;82.17;99310.31;4997694;28;19917;-82
2024/02/09 13:26:39;;;;;;;;;;;;;;;12.89;82.29;99300.56;4987234;28;19918;-82
2024/02/09 13:29:31;;;;;;;;;;;;;;;12.89;82.04;99311.47;4993827;28;20294;-82
2024/02/09 13:32:23;;;;;;;;;;;;;;;12.88;81.94;99310.69;4996365;28;19918;-82
2024/02/09 13:35:14;;;;;;;;;;;;;;;12.92;81.77;99308.00;4999519;28;20470;-82
2024/02/09 13:38:04;;;;;;;;;;;;;;;12.94;81.48;99314.69;4997090;28;20306;-82
2024/02/09 13:40:53;;;;;;;;;;;;;;;12.95;81.53;99307.28;4995708;28;19918;-82
2024/02/09 13:43:45;;;;;;;;;;;;;;;12.93;81.69;99302.19;4999105;28;19926;-82
2024/02/09 13:46:37;;;;;;;;;;;;;;;12.89;82.27;99300.56;4996716;28;19918;-82
2024/02/09 13:49:29;;;;;;;;;;;;;;;12.88;82.67;99304.44;4994625;28;19918;-82
2024/02/09 13:52:21;;;;;;;;;;;;;;;12.88;82.32;99302.50;4998090;28;19918;-82
2024/02/09 13:55:17;;;;;;;;;;;;;;;12.91;82.51;99307.22;4995880;28;19922;-82
2024/02/09 13:58:09;;;;;;;;;;;;;;;12.90;82.52;99311.09;4999167;28;19921;-82
2024/02/09 14:01:00;;;;;;;;;;;;;;;12.88;82.80;99304.44;4997439;28;19922;-83
2024/02/09 14:03:52;;;;;;;;;;;;;;;12.89;82.61;99303.28;4995121;28;19918;-82
2024/02/09 14:06:42;;;;;;;;;;;;;;;12.89;82.48;99301.34;4998467;28;19918;-82
2024/02/09 14:09:35;;;;;;;;;;;;;;;12.85;83.04;99301.25;4995270;28;19917;-82
2024/02/09 14:12:27;;;;;;;;;;;;;;;12.88;83.20;99298.97;4994382;28;20298;-83
2024/02/09 14:15:19;;;;;;;;;;;;;;;12.81;83.37;99299.63;4997783;28;19922;-82
2024/02/09 14:18:08;;;;;;;;;;;;;;;12.79;83.28;99302.75;4995386;28;19922;-82
2024/02/09 14:21:00;;;;;;;;;;;;;;;12.79;83.61;99302.75;4999300;28;19917;-82
2024/02/09 14:23:50;;;;;;;;;;;;;;;12.78;83.63;99301.16;4996930;28;19918;-82
2024/02/09 14:26:44;;;;;;;;;;;;;;;12.75;83.76;99292.91;4994353;28;20318;-82
2024/02/09 14:29:36;;;;;;;;;;;;;;;12.78;83.93;99294.91;4994898;28;19922;-82
2024/02/09 14:32:28;;;;;;;;;;;;;;;12.78;83.67;99297.66;4996186;28;19921;-82
2024/02/09 14:35:18;;;;;;;;;;;;;;;12.72;83.79;99290.91;4993917;28;19921;-82
2024/02/09 14:38:10;;;;;;;;;;;;;;;12.72;84.12;99285.47;4997402;28;19918;-82
2024/02/09 14:41:02;;;;;;;;;;;;;;;12.76;84.30;99294.47;4995478;28;19922;-82
2024/02/09 14:43:54;;;;;;;;;;;;;;;12.65;84.68;99280.66;4998695;28;19918;-83
2024/02/09 14:46:46;;;;;;;;;;;;;;;12.71;84.65;99281.94;4996613;28;20397;-82
2024/02/09 14:49:39;;;;;;;;;;;;;;;12.79;84.21;99291.03;4994390;28;20306;-82
2024/02/09 14:52:31;;;;;;;;;;;;;;;12.76;84.08;99287.09;4998256;28;20286;-82
2024/02/09 14:55:23;;;;;;;;;;;;;;;12.57;85.48;99273.53;4995973;28;19926;-81
2024/02/09 14:58:15;;;;;;;;;;;;;;;12.61;85.40;99268.13;4993773;28;19918;-81
2024/02/09 15:01:07;;;;;;;;;;;;;;;12.63;85.63;99277.53;4997365;28;19918;-81
2024/02/09 15:03:56;;;;;;;;;;;;;;;12.72;85.53;99286.25;4994880;28;19921;-81
2024/02/09 15:06:48;;;;;;;;;;;;;;;12.78;85.06;99282.06;4983982;28;19921;-81
2024/02/09 15:09:40;;;;;;;;;;;;;;;12.73;85.30;99276.13;4994193;28;19918;-82
2024/02/09 15:12:30;;;;;;;;;;;;;;;12.66;85.81;99271.34;4994233;28;19921;-80
2024/02/09 15:15:22;;;;;;;;;;;;;;;12.67;85.49;99267.47;4997874;28;19918;-82
2024/02/09 15:18:15;;;;;;;;;;;;;;;12.72;85.70;99264.44;4990906;28;19917;-82
2024/02/09 15:21:07;;;;;;;;;;;;;;;12.75;85.29;99274.59;4995436;28;19922;-82
2024/02/09 15:23:59;;;;;;;;;;;;;;;12.76;85.41;99270.72;4977293;28;19918;-82
2024/02/09 15:26:51;;;;;;;;;;;;;;;12.77;85.33;99271.50;4973693;28;20379;-83
2024/02/09 15:29:47;;;;;;;;;;;;;;;12.78;84.81;99279.34;4973966;28;19921;-82
2024/02/09 15:32:38;;;;;;;;;;;;;;;12.76;84.78;99275.38;4976154;28;20327;-83
2024/02/09 15:35:30;;;;;;;;;;;;;;;12.74;84.92;99278.50;4974208;28;19922;-83
2024/02/09 15:38:20;;;;;;;;;;;;;;;12.90;84.02;99269.41;4977552;28;19918;-83
2024/02/09 15:41:18;;;;;;;;;;;;;;;12.85;84.06;99259.56;4975393;28;20300;-83
2024/02/09 15:44:10;;;;;;;;;;;;;;;12.79;84.44;99245.47;4973125;28;19918;-83
2024/02/09 15:47:02;;;;;;;;;;;;;;;12.71;84.79;99237.50;4976310;28;19918;-83
2024/02/09 15:49:54;;;;;;;;;;;;;;;12.73;84.94;99227.81;4973321;28;19922;-83
2024/02/09 15:52:45;;;;;;;;;;;;;;;12.66;85.06;99238.59;4977310;28;19922;-83
2024/02/09 15:55:35;;;;;;;;;;;;;;;12.61;85.35;99225.28;4975886;28;19922;-83
2024/02/09 15:58:27;;;;;;;;;;;;;;;12.63;85.28;99211.28;4973653;28;19918;-83
2024/02/09 16:01:19;;;;;;;;;;;;;;;12.60;85.08;99223.69;4978398;28;19926;-82
2024/02/09 16:04:10;;;;;;;;;;;;;;;12.63;85.08;99225.72;4984074;28;20303;-82
2024/02/09 16:07:00;;;;;;;;;;;;;;;12.64;85.13;99231.97;4984168;28;19919;-82
2024/02/09 16:09:52;;;;;;;;;;;;;;;12.63;85.27;99223.00;4981471;28;19922;-82
2024/02/09 16:12:44;;;;;;;;;;;;;;;12.60;84.94;99228.38;4979362;28;19918;-82
2024/02/09 16:15:36;;;;;;;;;;;;;;;12.61;84.80;99225.28;4985632;28;19922;-83
2024/02/09 16:18:28;;;;;;;;;;;;;;;12.62;84.77;99220.63;4982347;28;19921;-82
2024/02/09 16:21:19;;;;;;;;;;;;;;;12.60;84.76;99223.69;4981689;28;19922;-82
2024/02/09 16:24:11;;;;;;;;;;;;;;;12.67;84.33;99225.75;4971957;28;19918;-81
2024/02/09 16:27:03;;;;;;;;;;;;;;;12.66;84.18;99227.69;4974745;28;19918;-83
2024/02/09 16:29:53;;;;;;;;;;;;;;;12.61;84.57;99228.00;4985103;28;20383;-81
2024/02/09 16:32:45;;;;;;;;;;;;;;;12.60;84.83;99222.91;4986946;28;19922;-81
2024/02/09 16:35:38;;;;;;;;;;;;;;;12.59;84.36;99222.16;4995725;28;19918;-82
2024/02/09 16:38:29;;;;;;;;;;;;;;;12.57;84.94;99221.72;4978695;28;19918;-82
2024/02/09 16:41:21;;;;;;;;;;;;;;;12.56;84.84;99222.06;4986212;28;19918;-83
2024/02/09 16:44:13;;;;;;;;;;;;;;;12.55;84.87;99221.28;4987076;28;19918;-81
2024/02/09 16:47:05;;;;;;;;;;;;;;;12.57;84.93;99224.44;4979860;28;19922;-82
2024/02/09 16:49:58;;;;;;;;;;;;;;;12.59;84.70;99241.25;4985338;28;19922;-82
2024/02/09 16:52:50;;;;;;;;;;;;;;;12.61;84.54;99233.47;4973863;28;19922;-82
2024/02/09 16:55:42;;;;;;;;;;;;;;;12.59;84.89;99229.53;4977831;28;19926;-83
2024/02/09 16:58:34;;;;;;;;;;;;;;;12.60;84.61;99236.53;4976506;28;19918;-83
2024/02/09 17:01:24;;;;;;;;;;;;;;;12.59;84.78;99235.78;4975070;28;20300;-83
2024/02/09 17:04:16;;;;;;;;;;;;;;;12.59;85.16;99222.16;4989054;28;19922;-83
2024/02/09 17:07:09;;;;;;;;;;;;;;;12.56;84.66;99217.41;4995767;28;19922;-82
2024/02/09 17:09:58;;;;;;;;;;;;;;;12.49;85.40;99214.59;4982929;28;19918;-83
2024/02/09 17:12:45;;;;;;;;;;;;;;;12.43;85.58;99214.09;4988931;28;19931;-82
2024/02/09 17:15:37;;;;;;;;;;;;;;;12.39;85.88;99209.75;4978568;28;19918;-81
2024/02/09 17:18:26;;;;;;;;;;;;;;;12.32;86.41;99196.75;4983645;28;19922;-83
2024/02/09 17:21:21;;;;;;;;;;;;;;;12.44;86.00;99198.53;4983953;28;20073;-83
2024/02/09 17:24:13;;;;;;;;;;;;;;;12.41;85.66;99200.03;4989426;28;19918;-84
2024/02/09 17:27:06;;;;;;;;;;;;;;;12.45;85.36;99189.19;4981820;28;20308;-83
2024/02/09 17:29:58;;;;;;;;;;;;;;;12.38;85.83;99195.31;4983069;28;20326;-82
2024/02/09 17:32:50;;;;;;;;;;;;;;;12.39;85.93;99201.56;4993727;28;19918;-84
2024/02/09 17:35:43;;;;;;;;;;;;;;;12.44;85.70;99193.06;4976939;28;19918;-82
2024/02/09 17:38:35;;;;;;;;;;;;;;;12.40;86.07;99190.28;4993645;28;19917;-83
2024/02/09 17:41:27;;;;;;;;;;;;;;;12.39;85.81;99185.19;4995634;28;20399;-83
2024/02/09 17:44:19;;;;;;;;;;;;;;;12.42;85.91;99193.44;4991351;28;19922;-82
2024/02/09 17:47:11;;;;;;;;;;;;;;;12.44;85.83;99196.56;5002599;28;20398;-82
2024/02/09 17:50:01;;;;;;;;;;;;;;;12.45;85.81;99200.09;4982126;28;19918;-83